Time,TemperatureF,DewpointF,PressureIn,WindDirection,WindDirectionDegrees,WindSpeedMPH,WindSpeedGustMPH,Humidity,HourlyPrecipIn,Conditions,Clouds,dailyrainin,SoftwareType,DateUTC
2013-04-20 00:00:00,51.4,49.2,29.73,NNW,337,0.0,1.0,92,0.00,OVC,OVC,0.00,WeatherDisplay:10.31,2013-04-20 04:00:00,
2013-04-20 00:05:00,51.3,49.1,29.72,NNW,340,0.0,1.0,92,0.00,OVC,OVC,0.00,WeatherDisplay:10.31,2013-04-20 04:05:00,
2013-04-20 00:10:00,51.0,48.8,29.71,NNW,344,0.0,1.0,92,0.01,RA,RA,0.01,WeatherDisplay:10.31,2013-04-20 04:10:00,
2013-04-20 00:15:00,50.8,48.6,29.72,NNW,344,0.0,1.0,92,0.00,RA,RA,0.01,WeatherDisplay:10.31,2013-04-20 04:15:00,
2013-04-20 00:20:00,50.5,48.3,29.74,NNW,333,0.0,1.0,92,0.00,OVC,OVC,0.01,WeatherDisplay:10.31,2013-04-20 04:20:00,
2013-04-20 00:25:00,50.4,48.2,29.72,NNW,328,0.0,1.0,92,0.01,RA,RA,0.02,WeatherDisplay:10.31,2013-04-20 04:25:00,
2013-04-20 00:30:00,50.4,48.2,29.71,NNW,333,0.0,1.0,92,0.00,RA,RA,0.02,WeatherDisplay:10.31,2013-04-20 04:30:00,
2013-04-20 00:40:00,50.2,48.0,29.72,NW,322,0.0,1.0,92,0.00,OVC,OVC,0.02,WeatherDisplay:10.31,2013-04-20 04:40:00,
2013-04-20 00:50:00,50.1,47.9,29.72,NNW,337,0.0,1.0,92,0.01,RA,RA,0.03,WeatherDisplay:10.31,2013-04-20 04:50:00,
2013-04-20 01:00:00,50.1,47.9,29.74,NNW,336,0.0,1.0,92,0.00,OVC,OVC,0.03,WeatherDisplay:10.31,2013-04-20 05:00:00,
2013-04-20 01:05:00,49.9,47.7,29.74,NNW,333,0.0,1.0,92,0.00,OVC,OVC,0.03,WeatherDisplay:10.31,2013-04-20 05:05:00,
2013-04-20 01:10:00,49.8,47.3,29.74,NW,317,0.0,1.0,91,0.01,RA,RA,0.04,WeatherDisplay:10.31,2013-04-20 05:10:00,
2013-04-20 01:20:00,49.4,46.9,29.75,NNW,331,0.0,1.0,91,0.00,OVC,OVC,0.04,WeatherDisplay:10.31,2013-04-20 05:20:00,
2013-04-20 01:30:00,49.1,46.3,29.74,NW,320,0.0,1.0,90,0.00,OVC,OVC,0.04,WeatherDisplay:10.31,2013-04-20 05:30:00,
2013-04-20 01:40:00,49.1,46.0,29.74,NW,324,0.0,1.0,89,0.00,OVC,OVC,0.04,WeatherDisplay:10.31,2013-04-20 05:40:00,
2013-04-20 01:50:00,49.1,45.7,29.74,NW,324,0.0,1.0,88,0.00,OVC,OVC,0.04,WeatherDisplay:10.31,2013-04-20 05:50:00,
2013-04-20 02:00:00,49.1,45.4,29.75,NNW,335,1.0,1.0,87,0.00,OVC,OVC,0.04,WeatherDisplay:10.31,2013-04-20 06:00:00,
2013-04-20 02:05:00,49.1,45.4,29.76,NNW,333,0.0,1.0,87,0.00,OVC,OVC,0.04,WeatherDisplay:10.31,2013-04-20 06:05:00,
2013-04-20 02:10:00,49.1,45.4,29.76,NW,322,0.0,1.0,87,0.00,OVC,OVC,0.04,WeatherDisplay:10.31,2013-04-20 06:10:00,
2013-04-20 02:20:00,49.1,45.1,29.76,NW,310,1.0,1.0,86,0.00,OVC,OVC,0.04,WeatherDisplay:10.31,2013-04-20 06:20:00,
2013-04-20 02:30:00,49.1,44.5,29.76,WNW,301,0.0,1.0,84,0.00,OVC,OVC,0.04,WeatherDisplay:10.31,2013-04-20 06:30:00,
2013-04-20 02:40:00,49.1,43.8,29.77,NW,310,0.0,1.0,82,0.00,OVC,OVC,0.04,WeatherDisplay:10.31,2013-04-20 06:40:00,
2013-04-20 02:50:00,49.2,42.6,29.77,WNW,295,0.0,1.0,78,0.00,OVC,OVC,0.04,WeatherDisplay:10.31,2013-04-20 06:50:00,
2013-04-20 03:00:00,49.5,41.6,29.77,WNW,299,0.0,1.0,74,0.00,OVC,OVC,0.04,WeatherDisplay:10.31,2013-04-20 07:00:00,
2013-04-20 03:05:00,49.5,40.5,29.77,WNW,290,0.0,1.0,71,0.00,OVC,OVC,0.04,WeatherDisplay:10.31,2013-04-20 07:05:00,
2013-04-20 03:10:00,49.6,39.1,29.77,WNW,288,0.0,1.0,67,0.00,OVC,OVC,0.04,WeatherDisplay:10.31,2013-04-20 07:10:00,
2013-04-20 03:20:00,50.2,37.3,29.78,WNW,290,0.0,1.0,61,0.00,OVC,OVC,0.04,WeatherDisplay:10.31,2013-04-20 07:20:00,
2013-04-20 03:30:00,50.5,36.3,29.79,WNW,284,0.0,1.0,58,0.00,OVC,OVC,0.04,WeatherDisplay:10.31,2013-04-20 07:30:00,
2013-04-20 03:40:00,50.5,35.4,29.80,WNW,286,0.0,1.0,56,0.00,OVC,OVC,0.04,WeatherDisplay:10.31,2013-04-20 07:40:00,
2013-04-20 03:45:00,50.5,34.9,29.81,West,281,0.0,1.0,55,0.00,OVC,OVC,0.04,WeatherDisplay:10.31,2013-04-20 07:45:00,
2013-04-20 03:50:00,50.5,34.9,29.81,WNW,288,0.0,1.0,55,0.00,OVC,OVC,0.04,WeatherDisplay:10.31,2013-04-20 07:50:00,
2013-04-20 04:00:00,50.5,35.8,29.82,WNW,288,0.0,1.0,57,0.00,OVC,OVC,0.04,WeatherDisplay:10.31,2013-04-20 08:00:00,
2013-04-20 04:05:00,50.4,35.3,29.82,WNW,290,0.0,1.0,56,0.00,OVC,OVC,0.04,WeatherDisplay:10.31,2013-04-20 08:05:00,
2013-04-20 04:10:00,50.2,35.1,29.82,WNW,290,0.0,1.0,56,0.00,OVC,OVC,0.04,WeatherDisplay:10.31,2013-04-20 08:10:00,
2013-04-20 04:20:00,50.1,34.5,29.83,West,275,0.0,1.0,55,0.00,OVC,OVC,0.04,WeatherDisplay:10.31,2013-04-20 08:20:00,
2013-04-20 04:30:00,49.9,34.4,29.83,West,281,0.0,1.0,55,0.00,OVC,OVC,0.04,WeatherDisplay:10.31,2013-04-20 08:30:00,
2013-04-20 04:40:00,49.8,34.7,29.83,West,281,0.0,1.0,56,0.00,OVC,OVC,0.04,WeatherDisplay:10.31,2013-04-20 08:40:00,
2013-04-20 04:50:00,49.6,34.1,29.84,WNW,290,0.0,1.0,55,0.00,OVC,OVC,0.04,WeatherDisplay:10.31,2013-04-20 08:50:00,
2013-04-20 05:00:00,49.5,33.1,29.85,WNW,290,0.0,1.0,53,0.00,OVC,OVC,0.04,WeatherDisplay:10.31,2013-04-20 09:00:00,
2013-04-20 05:10:00,49.4,32.5,29.85,WNW,290,0.0,1.0,52,0.00,OVC,OVC,0.04,WeatherDisplay:10.31,2013-04-20 09:10:00,
2013-04-20 05:20:00,49.4,30.5,29.86,WNW,288,0.0,1.0,48,0.00,OVC,OVC,0.04,WeatherDisplay:10.31,2013-04-20 09:20:00,
2013-04-20 05:30:00,49.4,28.9,29.86,West,279,0.0,1.0,45,0.00,OVC,OVC,0.04,WeatherDisplay:10.31,2013-04-20 09:30:00,
2013-04-20 05:40:00,49.4,29.5,29.87,West,279,0.0,1.0,46,0.00,OVC,OVC,0.04,WeatherDisplay:10.31,2013-04-20 09:40:00,
2013-04-20 05:50:00,49.2,28.7,29.88,WNW,288,0.0,1.0,45,0.00,OVC,OVC,0.04,WeatherDisplay:10.31,2013-04-20 09:50:00,
2013-04-20 06:00:00,48.9,28.5,29.88,West,270,0.0,1.0,45,0.00,OVC,OVC,0.04,WeatherDisplay:10.31,2013-04-20 10:00:00,
2013-04-20 06:05:00,48.9,28.5,29.88,West,277,0.0,1.0,45,0.00,OVC,OVC,0.04,WeatherDisplay:10.31,2013-04-20 10:05:00,
2013-04-20 06:10:00,48.8,28.9,29.89,WNW,283,0.0,1.0,46,0.00,OVC,OVC,0.04,WeatherDisplay:10.31,2013-04-20 10:10:00,
2013-04-20 06:20:00,48.6,28.7,29.89,West,279,0.0,1.0,46,0.00,OVC,OVC,0.04,WeatherDisplay:10.31,2013-04-20 10:20:00,
2013-04-20 06:30:00,48.5,29.7,29.90,West,270,0.0,1.0,48,0.00,OVC,OVC,0.04,WeatherDisplay:10.31,2013-04-20 10:30:00,
2013-04-20 06:40:00,48.3,29.5,29.90,West,279,0.0,1.0,48,0.00,BKN,BKN,0.04,WeatherDisplay:10.31,2013-04-20 10:40:00,
2013-04-20 06:50:00,48.2,29.9,29.91,West,281,0.0,1.0,49,0.00,BKN,BKN,0.04,WeatherDisplay:10.31,2013-04-20 10:50:00,
2013-04-20 07:00:00,48.0,30.2,29.92,WNW,286,0.0,1.0,50,0.00,BKN,BKN,0.04,WeatherDisplay:10.31,2013-04-20 11:00:00,
2013-04-20 07:05:00,48.0,29.7,29.93,WNW,290,0.0,1.0,49,0.00,BKN,BKN,0.04,WeatherDisplay:10.31,2013-04-20 11:05:00,
2013-04-20 07:10:00,47.9,29.6,29.93,WNW,292,0.0,1.0,49,0.00,BKN,BKN,0.04,WeatherDisplay:10.31,2013-04-20 11:10:00,
2013-04-20 07:20:00,47.7,28.9,29.94,WNW,297,0.0,1.0,48,0.00,BKN,BKN,0.04,WeatherDisplay:10.31,2013-04-20 11:20:00,
2013-04-20 07:30:00,47.3,26.5,29.95,WNW,297,0.0,1.0,44,0.00,BKN,BKN,0.04,WeatherDisplay:10.31,2013-04-20 11:30:00,
2013-04-20 07:40:00,47.0,24.5,29.96,WNW,290,0.0,1.0,41,0.00,BKN,BKN,0.04,WeatherDisplay:10.31,2013-04-20 11:40:00,
2013-04-20 07:50:00,46.8,24.9,29.96,WNW,292,0.0,1.0,42,0.00,OVC,OVC,0.04,WeatherDisplay:10.31,2013-04-20 11:50:00,
2013-04-20 08:00:00,46.5,24.0,29.97,WNW,297,0.0,1.0,41,0.00,OVC,OVC,0.04,WeatherDisplay:10.31,2013-04-20 12:00:00,
2013-04-20 08:05:00,46.4,24.5,29.97,WNW,290,0.0,1.0,42,0.00,OVC,OVC,0.04,WeatherDisplay:10.31,2013-04-20 12:05:00,
2013-04-20 08:10:00,46.4,24.5,29.97,WNW,290,0.0,1.0,42,0.00,OVC,OVC,0.04,WeatherDisplay:10.31,2013-04-20 12:10:00,
2013-04-20 08:20:00,46.1,25.4,29.98,WNW,297,0.0,1.0,44,0.00,OVC,OVC,0.04,WeatherDisplay:10.31,2013-04-20 12:20:00,
2013-04-20 08:25:00,46.0,25.3,29.98,WNW,297,0.0,1.0,44,0.00,OVC,OVC,0.04,WeatherDisplay:10.31,2013-04-20 12:25:00,
2013-04-20 08:35:00,45.8,25.1,29.99,WNW,290,0.0,1.0,44,0.00,OVC,OVC,0.04,WeatherDisplay:10.31,2013-04-20 12:35:00,
2013-04-20 08:40:00,45.8,25.6,29.98,WNW,295,0.0,1.0,45,0.00,BKN,BKN,0.04,WeatherDisplay:10.31,2013-04-20 12:40:00,
2013-04-20 08:45:00,45.8,25.1,29.99,WNW,292,0.0,1.0,44,0.00,OVC,OVC,0.04,WeatherDisplay:10.31,2013-04-20 12:45:00,
2013-04-20 08:50:00,46.0,25.8,29.99,WNW,290,0.0,1.0,45,0.00,OVC,OVC,0.04,WeatherDisplay:10.31,2013-04-20 12:50:00,
2013-04-20 09:00:00,46.0,25.9,29.99,West,281,0.0,1.0,45,0.00,SCT,SCT,0.04,WeatherDisplay:10.31,2013-04-20 13:00:00,
2013-04-20 09:05:00,46.4,26.7,30.00,WNW,292,0.0,1.0,46,0.00,FEW,FEW,0.04,WeatherDisplay:10.31,2013-04-20 13:05:00,
2013-04-20 09:10:00,46.8,26.6,30.00,West,281,0.0,1.0,45,0.00,FEW,FEW,0.04,WeatherDisplay:10.31,2013-04-20 13:10:00,
2013-04-20 09:20:00,47.7,26.8,30.00,West,273,0.0,1.0,44,0.00,CLR,CLR,0.04,WeatherDisplay:10.31,2013-04-20 13:20:00,
2013-04-20 09:30:00,48.5,27.0,30.00,WNW,297,0.0,1.0,43,0.00,SCT,SCT,0.04,WeatherDisplay:10.31,2013-04-20 13:30:00,
2013-04-20 09:40:00,48.8,27.9,30.01,WNW,288,0.0,1.0,44,0.00,CLR,CLR,0.04,WeatherDisplay:10.31,2013-04-20 13:40:00,
2013-04-20 09:50:00,49.5,27.3,30.01,WSW,256,0.0,1.0,42,0.00,CLR,CLR,0.04,WeatherDisplay:10.31,2013-04-20 13:50:00,
2013-04-20 10:00:00,49.9,27.1,30.02,West,259,0.0,1.0,41,0.00,CLR,CLR,0.04,WeatherDisplay:10.31,2013-04-20 14:00:00,
2013-04-20 10:05:00,50.1,26.7,30.03,WSW,252,0.0,1.0,40,0.00,CLR,CLR,0.04,WeatherDisplay:10.31,2013-04-20 14:05:00,
2013-04-20 10:10:00,50.5,28.8,30.03,WSW,257,0.0,1.0,43,0.00,CLR,CLR,0.04,WeatherDisplay:10.31,2013-04-20 14:10:00,
2013-04-20 10:20:00,51.9,28.3,30.03,WNW,284,0.0,1.0,40,0.00,CLR,CLR,0.04,WeatherDisplay:10.31,2013-04-20 14:20:00,
2013-04-20 10:30:00,52.6,29.0,30.03,West,281,0.0,1.0,40,0.00,CLR,CLR,0.04,WeatherDisplay:10.31,2013-04-20 14:30:00,
2013-04-20 10:40:00,53.1,28.8,30.03,West,259,0.0,1.0,39,0.00,CLR,CLR,0.04,WeatherDisplay:10.31,2013-04-20 14:40:00,
2013-04-20 10:50:00,54.1,29.0,30.04,WNW,284,0.0,0.0,38,0.00,CLR,CLR,0.04,WeatherDisplay:10.31,2013-04-20 14:50:00,
2013-04-20 11:00:00,54.4,28.0,30.04,West,279,0.0,0.0,36,0.00,CLR,CLR,0.04,WeatherDisplay:10.31,2013-04-20 15:00:00,
2013-04-20 11:10:00,54.8,26.9,30.04,West,277,0.0,0.0,34,0.00,CLR,CLR,0.04,WeatherDisplay:10.31,2013-04-20 15:10:00,
2013-04-20 11:20:00,55.0,27.8,30.04,West,263,0.0,0.0,35,0.00,CLR,CLR,0.04,WeatherDisplay:10.31,2013-04-20 15:20:00,
2013-04-20 11:30:00,55.2,28.7,30.04,West,270,0.0,0.0,36,0.00,FEW,FEW,0.04,WeatherDisplay:10.31,2013-04-20 15:30:00,
2013-04-20 11:40:00,56.0,28.0,30.04,WNW,288,0.0,0.0,34,0.00,FEW,FEW,0.04,WeatherDisplay:10.31,2013-04-20 15:40:00,
2013-04-20 11:50:00,56.6,27.0,30.04,West,277,0.0,0.0,32,0.00,FEW,FEW,0.04,WeatherDisplay:10.31,2013-04-20 15:50:00,
2013-04-20 12:00:00,56.7,27.1,30.04,WSW,252,0.0,0.0,32,0.00,FEW,FEW,0.04,WeatherDisplay:10.31,2013-04-20 16:00:00,
2013-04-20 12:10:00,57.2,26.8,30.04,WSW,257,0.0,0.0,31,0.00,FEW,FEW,0.04,WeatherDisplay:10.31,2013-04-20 16:10:00,
2013-04-20 12:20:00,57.6,25.5,30.04,WNW,286,0.0,0.0,29,0.00,FEW,FEW,0.04,WeatherDisplay:10.31,2013-04-20 16:20:00,
2013-04-20 12:30:00,58.1,26.0,30.03,WNW,288,0.0,0.0,29,0.00,FEW,FEW,0.04,WeatherDisplay:10.31,2013-04-20 16:30:00,
2013-04-20 12:40:00,58.5,25.4,30.03,West,275,0.0,0.0,28,0.00,FEW,FEW,0.04,WeatherDisplay:10.31,2013-04-20 16:40:00,
2013-04-20 12:50:00,59.9,27.5,30.02,West,270,0.0,0.0,29,0.00,FEW,FEW,0.04,WeatherDisplay:10.31,2013-04-20 16:50:00,
2013-04-20 13:00:00,60.4,27.1,30.02,West,279,0.0,0.0,28,0.00,FEW,FEW,0.04,WeatherDisplay:10.31,2013-04-20 17:00:00,
2013-04-20 13:10:00,61.0,27.6,30.02,West,281,0.0,0.0,28,0.00,FEW,FEW,0.04,WeatherDisplay:10.31,2013-04-20 17:10:00,
2013-04-20 13:20:00,60.1,25.1,30.02,West,266,0.0,0.0,26,0.00,FEW,FEW,0.04,WeatherDisplay:10.31,2013-04-20 17:20:00,
2013-04-20 13:30:00,60.4,27.1,30.02,West,274,0.0,0.0,28,0.00,FEW,FEW,0.04,WeatherDisplay:10.31,2013-04-20 17:30:00,
2013-04-20 13:40:00,61.6,27.3,30.02,NW,306,0.0,0.0,27,0.00,FEW,FEW,0.04,WeatherDisplay:10.31,2013-04-20 17:40:00,
2013-04-20 13:50:00,60.9,24.8,30.02,West,270,0.0,0.0,25,0.00,FEW,FEW,0.04,WeatherDisplay:10.31,2013-04-20 17:50:00,
2013-04-20 14:00:00,61.8,24.6,30.02,West,263,0.0,0.0,24,0.00,FEW,FEW,0.04,WeatherDisplay:10.31,2013-04-20 18:00:00,
2013-04-20 14:05:00,61.8,25.6,30.02,WNW,288,0.0,0.0,25,0.00,FEW,FEW,0.04,WeatherDisplay:10.31,2013-04-20 18:05:00,
2013-04-20 14:10:00,62.1,25.8,30.02,WNW,290,0.0,0.0,25,0.00,FEW,FEW,0.04,WeatherDisplay:10.31,2013-04-20 18:10:00,
2013-04-20 14:20:00,62.7,25.3,30.02,WNW,293,0.0,0.0,24,0.00,FEW,FEW,0.04,WeatherDisplay:10.31,2013-04-20 18:20:00,
2013-04-20 14:30:00,62.3,24.0,30.02,West,273,0.0,0.0,23,0.00,FEW,FEW,0.04,WeatherDisplay:10.31,2013-04-20 18:30:00,
2013-04-20 14:35:00,62.3,24.0,30.02,West,265,0.0,0.0,23,0.00,CLR,CLR,0.04,WeatherDisplay:10.31,2013-04-20 18:35:00,
2013-04-20 14:40:00,62.4,24.1,30.02,West,266,0.0,0.0,23,0.00,CLR,CLR,0.04,WeatherDisplay:10.31,2013-04-20 18:40:00,
2013-04-20 14:50:00,62.3,21.8,30.02,West,270,0.0,0.0,21,0.00,CLR,CLR,0.04,WeatherDisplay:10.31,2013-04-20 18:50:00,
2013-04-20 14:55:00,61.3,23.1,30.02,WSW,257,0.0,0.0,23,0.00,FEW,FEW,0.04,WeatherDisplay:10.31,2013-04-20 18:55:00,
2013-04-20 15:05:00,61.3,24.2,30.03,West,265,0.0,0.0,24,0.00,CLR,CLR,0.04,WeatherDisplay:10.31,2013-04-20 19:05:00,
2013-04-20 15:10:00,62.0,24.8,30.03,West,277,0.0,0.0,24,0.00,CLR,CLR,0.04,WeatherDisplay:10.31,2013-04-20 19:10:00,
2013-04-20 15:20:00,63.4,25.9,30.03,West,279,0.0,0.0,24,0.00,CLR,CLR,0.04,WeatherDisplay:10.31,2013-04-20 19:20:00,
2013-04-20 15:30:00,64.3,24.6,30.03,West,281,0.0,0.0,22,0.00,CLR,CLR,0.04,WeatherDisplay:10.31,2013-04-20 19:30:00,
2013-04-20 15:40:00,64.5,24.8,30.03,West,261,0.0,0.0,22,0.00,CLR,CLR,0.04,WeatherDisplay:10.31,2013-04-20 19:40:00,
2013-04-20 15:50:00,64.7,26.0,30.03,WSW,253,0.0,0.0,23,0.00,CLR,CLR,0.04,WeatherDisplay:10.31,2013-04-20 19:50:00,
2013-04-20 16:00:00,65.2,24.2,30.03,WNW,283,0.0,0.0,21,0.00,CLR,CLR,0.04,WeatherDisplay:10.31,2013-04-20 20:00:00,
2013-04-20 16:05:00,65.2,24.2,30.04,WNW,299,0.0,0.0,21,0.00,CLR,CLR,0.04,WeatherDisplay:10.31,2013-04-20 20:05:00,
2013-04-20 16:10:00,65.3,25.4,30.04,NW,306,0.0,0.0,22,0.00,CLR,CLR,0.04,WeatherDisplay:10.31,2013-04-20 20:10:00,
2013-04-20 16:20:00,65.3,26.5,30.04,WNW,290,0.0,0.0,23,0.00,CLR,CLR,0.04,WeatherDisplay:10.31,2013-04-20 20:20:00,
2013-04-20 16:30:00,65.6,24.6,30.04,WNW,295,0.0,0.0,21,0.00,CLR,CLR,0.04,WeatherDisplay:10.31,2013-04-20 20:30:00,
2013-04-20 16:40:00,65.3,24.3,30.04,West,277,0.0,0.0,21,0.00,CLR,CLR,0.04,WeatherDisplay:10.31,2013-04-20 20:40:00,
2013-04-20 16:50:00,65.3,25.4,30.05,West,274,0.0,0.0,22,0.00,CLR,CLR,0.04,WeatherDisplay:10.31,2013-04-20 20:50:00,
2013-04-20 17:00:00,64.8,25.0,30.05,West,281,0.0,0.0,22,0.00,CLR,CLR,0.04,WeatherDisplay:10.31,2013-04-20 21:00:00,
2013-04-20 17:05:00,64.8,23.9,30.06,WNW,286,0.0,0.0,21,0.00,CLR,CLR,0.04,WeatherDisplay:10.31,2013-04-20 21:05:00,
2013-04-20 17:10:00,64.8,25.0,30.06,WNW,295,0.0,0.0,22,0.00,CLR,CLR,0.04,WeatherDisplay:10.31,2013-04-20 21:10:00,
2013-04-20 17:20:00,64.7,24.9,30.06,West,276,0.0,0.0,22,0.00,CLR,CLR,0.04,WeatherDisplay:10.31,2013-04-20 21:20:00,
2013-04-20 17:30:00,64.3,25.7,30.06,West,277,0.0,0.0,23,0.00,CLR,CLR,0.04,WeatherDisplay:10.31,2013-04-20 21:30:00,
2013-04-20 17:40:00,64.5,23.7,30.07,WNW,283,0.0,0.0,21,0.00,CLR,CLR,0.04,WeatherDisplay:10.31,2013-04-20 21:40:00,
2013-04-20 17:50:00,63.6,24.0,30.07,West,259,0.0,0.0,22,0.00,CLR,CLR,0.04,WeatherDisplay:10.31,2013-04-20 21:50:00,
2013-04-20 18:00:00,63.2,24.7,30.07,West,266,0.0,0.0,23,0.00,CLR,CLR,0.04,WeatherDisplay:10.31,2013-04-20 22:00:00,
2013-04-20 18:05:00,63.1,24.7,30.08,West,268,0.0,0.0,23,0.00,CLR,CLR,0.04,WeatherDisplay:10.31,2013-04-20 22:05:00,
2013-04-20 18:10:00,63.1,24.7,30.08,WNW,288,0.0,0.0,23,0.00,CLR,CLR,0.04,WeatherDisplay:10.31,2013-04-20 22:10:00,
2013-04-20 18:20:00,63.5,23.9,30.08,WNW,299,0.0,0.0,22,0.00,CLR,CLR,0.04,WeatherDisplay:10.31,2013-04-20 22:20:00,
2013-04-20 18:30:00,63.2,24.7,30.09,WNW,286,0.0,0.0,23,0.00,CLR,CLR,0.04,WeatherDisplay:10.31,2013-04-20 22:30:00,
2013-04-20 18:40:00,62.7,25.3,30.09,West,281,0.0,0.0,24,0.00,CLR,CLR,0.04,WeatherDisplay:10.31,2013-04-20 22:40:00,
2013-04-20 18:50:00,62.0,23.8,30.09,NW,306,0.0,1.0,23,0.00,CLR,CLR,0.04,WeatherDisplay:10.31,2013-04-20 22:50:00,
2013-04-20 19:00:00,61.1,23.0,30.10,WNW,292,0.0,0.0,23,0.00,CLR,CLR,0.04,WeatherDisplay:10.31,2013-04-20 23:00:00,
2013-04-20 19:05:00,60.5,23.5,30.10,West,281,0.0,0.0,24,0.00,CLR,CLR,0.04,WeatherDisplay:10.31,2013-04-20 23:05:00,
2013-04-20 19:10:00,60.1,23.2,30.10,WNW,284,0.0,0.0,24,0.00,FEW,FEW,0.04,WeatherDisplay:10.31,2013-04-20 23:10:00,
2013-04-20 19:20:00,59.6,23.7,30.11,WNW,292,0.0,0.0,25,0.00,BKN,BKN,0.04,WeatherDisplay:10.31,2013-04-20 23:20:00,
2013-04-20 19:25:00,59.3,23.4,30.11,WNW,295,0.0,1.0,25,0.00,SCT,SCT,0.04,WeatherDisplay:10.31,2013-04-20 23:25:00,
2013-04-20 19:30:00,59.2,23.4,30.11,WNW,302,0.0,1.0,25,0.00,SCT,SCT,0.04,WeatherDisplay:10.31,2013-04-20 23:30:00,
2013-04-20 19:40:00,58.7,22.9,30.12,NW,308,0.0,0.0,25,0.00,SCT,SCT,0.04,WeatherDisplay:10.31,2013-04-20 23:40:00,
2013-04-20 19:50:00,58.3,23.5,30.12,NW,318,0.0,0.0,26,0.00,OVC,OVC,0.04,WeatherDisplay:10.31,2013-04-20 23:50:00,
2013-04-20 19:55:00,58.1,24.2,30.13,NW,315,0.0,1.0,27,0.00,OVC,OVC,0.04,WeatherDisplay:10.31,2013-04-20 23:55:00,
2013-04-20 20:05:00,57.6,24.7,30.14,NNW,337,0.0,1.0,28,0.00,OVC,OVC,0.04,WeatherDisplay:10.31,2013-04-21 00:05:00,
2013-04-20 20:10:00,57.3,24.4,30.15,NNW,328,0.0,1.0,28,0.00,OVC,OVC,0.04,WeatherDisplay:10.31,2013-04-21 00:10:00,
2013-04-20 20:15:00,57.2,23.5,30.15,NW,310,0.0,1.0,27,0.00,OVC,OVC,0.04,WeatherDisplay:10.31,2013-04-21 00:15:00,
2013-04-20 20:20:00,56.9,23.3,30.15,NW,322,0.0,1.0,27,0.00,OVC,OVC,0.04,WeatherDisplay:10.31,2013-04-21 00:20:00,
2013-04-20 20:30:00,56.6,23.8,30.17,NNW,336,0.0,1.0,28,0.00,OVC,OVC,0.04,WeatherDisplay:10.31,2013-04-21 00:30:00,
2013-04-20 20:40:00,56.3,22.7,30.17,NNW,340,0.0,1.0,27,0.00,OVC,OVC,0.04,WeatherDisplay:10.31,2013-04-21 00:40:00,
2013-04-20 20:50:00,56.0,24.2,30.18,NNW,329,0.0,1.0,29,0.00,OVC,OVC,0.04,WeatherDisplay:10.31,2013-04-21 00:50:00,
2013-04-20 20:55:00,55.7,23.9,30.18,NW,324,0.0,1.0,29,0.00,OVC,OVC,0.04,WeatherDisplay:10.31,2013-04-21 00:55:00,
2013-04-20 21:05:00,55.4,23.6,30.19,NNW,342,0.0,1.0,29,0.00,OVC,OVC,0.04,WeatherDisplay:10.31,2013-04-21 01:05:00,
2013-04-20 21:10:00,55.3,24.3,30.19,NNW,342,0.0,1.0,30,0.00,OVC,OVC,0.04,WeatherDisplay:10.31,2013-04-21 01:10:00,
2013-04-20 21:15:00,55.1,24.2,30.20,NNW,342,0.0,1.0,30,0.00,OVC,OVC,0.04,WeatherDisplay:10.31,2013-04-21 01:15:00,
2013-04-20 21:20:00,54.8,23.9,30.20,NNW,331,0.0,0.0,30,0.00,OVC,OVC,0.04,WeatherDisplay:10.31,2013-04-21 01:20:00,
2013-04-20 21:30:00,54.5,24.4,30.20,NNW,337,0.0,0.0,31,0.00,OVC,OVC,0.04,WeatherDisplay:10.31,2013-04-21 01:30:00,
2013-04-20 21:40:00,54.3,25.1,30.21,North,355,0.0,1.0,32,0.00,OVC,OVC,0.04,WeatherDisplay:10.31,2013-04-21 01:40:00,
2013-04-20 21:50:00,53.9,24.7,30.22,North,360,0.0,1.0,32,0.00,OVC,OVC,0.04,WeatherDisplay:10.31,2013-04-21 01:50:00,
2013-04-20 22:00:00,53.5,25.1,30.23,North,7,0.0,0.0,33,0.00,OVC,OVC,0.04,WeatherDisplay:10.31,2013-04-21 02:00:00,
2013-04-20 22:05:00,53.3,23.4,30.23,North,5,0.0,0.0,31,0.00,OVC,OVC,0.04,WeatherDisplay:10.31,2013-04-21 02:05:00,
2013-04-20 22:10:00,53.2,23.3,30.23,North,358,0.0,1.0,31,0.00,OVC,OVC,0.04,WeatherDisplay:10.31,2013-04-21 02:10:00,
2013-04-20 22:15:00,52.9,23.8,30.23,North,358,0.0,1.0,32,0.00,OVC,OVC,0.04,WeatherDisplay:10.31,2013-04-21 02:15:00,
2013-04-20 22:25:00,52.6,23.5,30.24,North,353,0.0,1.0,32,0.00,OVC,OVC,0.04,WeatherDisplay:10.31,2013-04-21 02:25:00,
2013-04-20 22:30:00,52.4,22.6,30.24,NNW,344,0.0,0.0,31,0.00,OVC,OVC,0.04,WeatherDisplay:10.31,2013-04-21 02:30:00,
2013-04-20 22:40:00,52.0,23.0,30.24,North,358,0.0,0.0,32,0.00,OVC,OVC,0.04,WeatherDisplay:10.31,2013-04-21 02:40:00,
2013-04-20 22:50:00,51.7,22.8,30.25,NNW,344,0.0,1.0,32,0.00,OVC,OVC,0.04,WeatherDisplay:10.31,2013-04-21 02:50:00,
2013-04-20 23:00:00,51.4,23.2,30.25,North,360,0.0,0.0,33,0.00,OVC,OVC,0.04,WeatherDisplay:10.31,2013-04-21 03:00:00,
2013-04-20 23:05:00,51.3,23.1,30.25,North,7,0.0,1.0,33,0.00,OVC,OVC,0.04,WeatherDisplay:10.31,2013-04-21 03:05:00,
2013-04-20 23:10:00,51.0,22.2,30.25,North,360,0.0,1.0,32,0.00,OVC,OVC,0.04,WeatherDisplay:10.31,2013-04-21 03:10:00,
2013-04-20 23:20:00,50.8,22.0,30.26,North,349,0.0,1.0,32,0.00,OVC,OVC,0.04,WeatherDisplay:10.31,2013-04-21 03:20:00,
2013-04-20 23:30:00,50.5,22.4,30.26,North,360,0.0,1.0,33,0.00,OVC,OVC,0.04,WeatherDisplay:10.31,2013-04-21 03:30:00,
2013-04-20 23:40:00,50.2,22.9,30.26,North,353,0.0,3.0,34,0.00,OVC,OVC,0.04,WeatherDisplay:10.31,2013-04-21 03:40:00,
2013-04-20 23:50:00,49.9,22.6,30.26,NNW,346,0.0,1.0,34,0.00,OVC,OVC,0.04,WeatherDisplay:10.31,2013-04-21 03:50:00,